Zaragoza, Spain
Current Conditions -  °F | °C
As of 3:00 PM on Tuesday 27 Jan 2015 (Local Time) from LEZG Reporting Station
Few Clouds Few Clouds  
Wind Chill: 54°   Ceiling: Unl
Heat Index: 54°   Visibility: 6mi
Dew Point: 37°   Wind: 36mph
Humidity: 54%   Direction: 320°NW
Pressure: 30.24"   Gusts: 47mph
Location:  41.66°N, 0.88°W
Report Text: LEZG 271400Z 32031G41KT 9999 FEW035 12/03 Q1024
Loading
Personal Weather Stations






























Interactive Weather Map New forecast layout! Learn more

10-Day Weather Forecast

Advertisements
Track Severe Weather on mobile